Time;durP1;ratioP1;P1;durP2;ratioP2;P2;SDS_P1;SDS_P2;PMS_P1;PMS_P2;Temp;Humidity;BMP_temperature;BMP_pressure;BME280_temperature;BME280_humidity;BME280_pressure;Samples;Min_cycle;Max_cycle;Signal;HPM_P1;HPM_P2
2021/03/27 00:00:14;;;;;;;10.77;4.18;;;9.80;99.90;;;;;;4112904;28;20433;-68
2021/03/27 00:02:23;;;;;;;7.25;3.47;;;9.70;99.90;;;;;;4134399;28;20110;-68
2021/03/27 00:04:42;;;;;;;6.55;3.40;;;9.70;99.90;;;;;;4141544;28;20038;-68
2021/03/27 00:06:50;;;;;;;6.18;4.35;;;9.70;99.90;;;;;;4140712;28;20023;-68
2021/03/27 00:08:57;;;;;;;5.85;3.58;;;9.60;99.90;;;;;;4123303;28;20038;-68
2021/03/27 00:11:02;;;;;;;6.47;3.42;;;9.60;99.90;;;;;;4142455;28;20532;-68
2021/03/27 00:13:28;;;;;;;6.50;3.20;;;9.50;99.90;;;;;;4141077;28;20073;-68
2021/03/27 00:15:34;;;;;;;6.75;2.70;;;9.50;99.90;;;;;;4140499;28;20470;-68
2021/03/27 00:17:38;;;;;;;5.50;2.60;;;9.40;99.90;;;;;;4142514;28;20319;-68
2021/03/27 00:19:52;;;;;;;6.47;2.65;;;9.20;99.90;;;;;;4108721;28;20043;-67
2021/03/27 00:21:57;;;;;;;3.88;2.10;;;9.10;99.90;;;;;;4125262;28;20121;-67
2021/03/27 00:24:13;;;;;;;4.15;2.00;;;9.00;99.90;;;;;;4113964;28;20038;-68
2021/03/27 00:26:31;;;;;;;5.60;2.08;;;8.80;99.90;;;;;;4136926;28;20474;-67
2021/03/27 00:28:45;;;;;;;2.80;2.42;;;8.70;99.90;;;;;;4137619;28;20534;-67
2021/03/27 00:30:51;;;;;;;2.80;2.17;;;8.60;99.90;;;;;;4139556;28;20391;-67
2021/03/27 00:32:54;;;;;;;4.47;2.40;;;8.60;99.90;;;;;;4132922;28;20039;-68
2021/03/27 00:35:00;;;;;;;5.63;2.88;;;8.50;99.90;;;;;;4119124;28;20146;-68
2021/03/27 00:37:05;;;;;;;3.53;2.88;;;8.50;99.90;;;;;;4127622;28;20045;-67
2021/03/27 00:39:26;;;;;;;3.40;2.83;;;8.50;99.90;;;;;;4121451;28;20049;-67
2021/03/27 00:41:53;;;;;;;4.22;3.35;;;8.50;99.90;;;;;;4141425;28;20123;-68
2021/03/27 00:44:00;;;;;;;3.78;2.92;;;8.50;99.90;;;;;;4120631;28;20589;-68
2021/03/27 00:46:05;;;;;;;3.88;3.22;;;8.60;99.90;;;;;;4137691;28;20098;-68
2021/03/27 00:48:11;;;;;;;7.00;3.42;;;8.50;99.90;;;;;;4123324;28;20034;-68
2021/03/27 00:50:18;;;;;;;6.63;3.72;;;8.50;99.90;;;;;;4124794;28;20030;-68
2021/03/27 00:52:20;;;;;;;6.20;3.70;;;8.50;99.90;;;;;;4129301;28;20525;-68
2021/03/27 00:54:30;;;;;;;5.97;3.97;;;8.50;99.90;;;;;;4118378;28;20046;-68
2021/03/27 00:57:06;;;;;;;4.00;3.55;;;8.50;99.90;;;;;;4130329;28;20085;-68
2021/03/27 00:59:15;;;;;;;5.88;4.65;;;8.40;99.90;;;;;;4118265;28;20043;-68
2021/03/27 01:01:19;;;;;;;4.32;3.83;;;8.50;99.90;;;;;;4146602;28;20378;-68
2021/03/27 01:03:29;;;;;;;7.30;3.90;;;8.50;99.90;;;;;;4135867;28;20038;-68
2021/03/27 01:05:32;;;;;;;5.47;4.38;;;8.50;99.90;;;;;;4146655;28;20125;-68
2021/03/27 01:07:33;;;;;;;6.70;4.00;;;8.50;99.90;;;;;;4129359;28;20034;-68
2021/03/27 01:10:00;;;;;;;8.02;3.88;;;8.40;99.90;;;;;;4142936;28;20034;-68
2021/03/27 01:12:13;;;;;;;5.72;3.72;;;8.40;99.90;;;;;;4131324;28;20045;-68
2021/03/27 01:14:17;;;;;;;6.10;3.67;;;8.30;99.90;;;;;;4143461;28;20045;-68
2021/03/27 01:16:24;;;;;;;7.55;3.55;;;8.30;99.90;;;;;;4146100;28;20578;-68
2021/03/27 01:18:33;;;;;;;5.03;3.20;;;8.30;99.90;;;;;;4146670;28;20053;-68
2021/03/27 01:20:38;;;;;;;3.92;3.08;;;8.30;99.90;;;;;;4146820;28;20465;-68
2021/03/27 01:22:40;;;;;;;5.78;3.25;;;8.30;99.90;;;;;;4146400;28;21995;-68
2021/03/27 01:24:41;;;;;;;7.97;4.00;;;8.30;99.90;;;;;;4129789;28;20038;-68
2021/03/27 01:26:51;;;;;;;5.60;3.17;;;8.30;99.90;;;;;;4145450;28;20375;-68
2021/03/27 01:29:03;;;;;;;6.35;3.40;;;8.30;99.90;;;;;;4146920;28;20478;-68
2021/03/27 01:31:20;;;;;;;5.70;3.53;;;8.30;99.90;;;;;;4141039;28;20121;-68
2021/03/27 01:33:30;;;;;;;6.32;3.58;;;8.30;99.90;;;;;;4134912;28;20062;-67
2021/03/27 01:35:46;;;;;;;5.78;3.55;;;8.20;99.90;;;;;;4146959;28;20037;-68
2021/03/27 01:37:59;;;;;;;6.55;2.90;;;8.10;99.90;;;;;;4128816;28;20085;-68
2021/03/27 01:40:10;;;;;;;7.00;3.25;;;8.10;99.90;;;;;;4141243;28;20466;-68
2021/03/27 01:42:54;;;;;;;6.85;3.03;;;8.20;99.90;;;;;;4140269;28;20160;-68
2021/03/27 01:45:04;;;;;;;4.15;2.40;;;8.20;99.90;;;;;;4133719;28;20091;-68
2021/03/27 01:47:33;;;;;;;4.60;2.60;;;8.20;99.90;;;;;;4113603;28;20046;-68
2021/03/27 01:49:54;;;;;;;6.85;2.40;;;8.10;99.90;;;;;;4133769;28;20026;-68
2021/03/27 01:52:00;;;;;;;6.10;2.60;;;8.10;99.90;;;;;;4143063;28;20108;-68
2021/03/27 01:54:35;;;;;;;5.10;2.40;;;8.00;99.90;;;;;;4143289;28;20041;-68
2021/03/27 01:56:42;;;;;;;6.50;2.45;;;8.00;99.90;;;;;;4097681;28;20061;-68
2021/03/27 01:58:51;;;;;;;5.70;2.38;;;8.00;99.90;;;;;;4143236;28;20140;-68
2021/03/27 02:01:22;;;;;;;4.07;1.65;;;7.90;99.90;;;;;;4142894;28;20626;-68
2021/03/27 02:04:01;;;;;;;6.07;1.98;;;7.90;99.90;;;;;;4137495;28;20133;-68
2021/03/27 02:06:26;;;;;;;4.35;2.05;;;8.00;99.90;;;;;;4119761;28;20509;-68
2021/03/27 02:08:40;;;;;;;4.28;1.85;;;7.90;99.90;;;;;;4140539;28;20030;-68
2021/03/27 02:11:05;;;;;;;5.30;1.58;;;7.90;99.90;;;;;;4123122;28;20045;-68
2021/03/27 02:13:32;;;;;;;2.97;1.50;;;7.90;99.90;;;;;;4143821;28;20034;-68
2021/03/27 02:15:45;;;;;;;6.00;1.42;;;7.80;99.90;;;;;;4142696;28;20022;-68
2021/03/27 02:18:08;;;;;;;6.05;1.65;;;7.80;99.90;;;;;;4143123;28;20121;-68
2021/03/27 02:20:20;;;;;;;3.72;1.35;;;7.80;99.90;;;;;;4142875;28;20053;-68
2021/03/27 02:22:25;;;;;;;4.32;1.40;;;7.60;99.90;;;;;;4138032;28;20030;-68
2021/03/27 02:25:03;;;;;;;7.32;1.90;;;7.70;99.90;;;;;;4122554;28;20038;-68
2021/03/27 02:27:16;;;;;;;6.25;1.42;;;7.80;99.90;;;;;;4136422;28;20049;-68
2021/03/27 02:29:44;;;;;;;5.82;1.63;;;7.80;99.90;;;;;;4141543;28;20054;-68
2021/03/27 02:31:46;;;;;;;6.90;1.60;;;7.80;99.90;;;;;;4140648;28;20175;-68
2021/03/27 02:33:55;;;;;;;7.47;1.80;;;7.80;99.90;;;;;;4143506;28;20042;-68
2021/03/27 02:36:12;;;;;;;5.72;1.70;;;7.80;99.90;;;;;;4142806;28;20029;-68
2021/03/27 02:38:37;;;;;;;5.45;1.67;;;7.70;99.90;;;;;;4143567;28;20585;-68
2021/03/27 02:40:43;;;;;;;6.15;1.83;;;7.80;99.90;;;;;;4140506;28;20038;-68
2021/03/27 02:43:15;;;;;;;7.50;1.60;;;7.80;99.90;;;;;;4125677;28;20041;-68
2021/03/27 02:45:22;;;;;;;3.40;1.50;;;7.70;99.90;;;;;;4142965;28;20049;-68
2021/03/27 02:47:38;;;;;;;7.72;1.90;;;7.80;99.90;;;;;;4143075;28;20120;-68
2021/03/27 02:49:48;;;;;;;9.40;2.25;;;7.80;99.90;;;;;;4138457;28;20033;-68
2021/03/27 02:51:57;;;;;;;6.30;1.85;;;7.80;99.90;;;;;;4143613;28;20056;-68
2021/03/27 02:54:31;;;;;;;7.15;1.98;;;7.80;99.90;;;;;;4122001;28;20097;-68
2021/03/27 02:56:48;;;;;;;4.00;1.67;;;7.80;99.90;;;;;;4120905;28;20035;-69
2021/03/27 02:58:52;;;;;;;4.72;1.75;;;7.90;99.90;;;;;;4124473;28;20050;-68
2021/03/27 03:01:36;;;;;;;6.78;1.92;;;7.80;99.90;;;;;;4137687;28;20434;-68
2021/03/27 03:03:53;;;;;;;11.32;2.35;;;7.80;99.90;;;;;;4065039;29;20035;-68
2021/03/27 03:06:00;;;;;;;6.47;1.92;;;7.80;99.90;;;;;;4122730;28;20084;-68
2021/03/27 03:08:27;;;;;;;6.43;2.30;;;7.80;99.90;;;;;;4132764;28;20081;-68
2021/03/27 03:10:36;;;;;;;5.75;1.90;;;7.80;99.90;;;;;;4137114;28;20034;-68
2021/03/27 03:12:58;;;;;;;5.47;1.98;;;7.80;99.90;;;;;;4136373;28;20514;-68
2021/03/27 03:15:07;;;;;;;10.63;2.33;;;7.80;99.90;;;;;;4142006;28;20056;-68
2021/03/27 03:17:33;;;;;;;6.38;2.38;;;7.70;99.90;;;;;;4138941;28;20038;-68
2021/03/27 03:19:49;;;;;;;7.15;2.30;;;7.70;99.90;;;;;;4139153;28;20038;-68
2021/03/27 03:22:21;;;;;;;9.10;2.45;;;7.70;99.90;;;;;;4158077;28;20033;-68
2021/03/27 03:24:42;;;;;;;9.10;2.22;;;7.70;99.90;;;;;;4145964;28;20046;-68
2021/03/27 03:27:17;;;;;;;7.57;2.35;;;7.50;99.90;;;;;;4141636;28;20045;-68
2021/03/27 03:29:31;;;;;;;8.38;2.30;;;7.60;99.90;;;;;;4142518;28;20116;-68
2021/03/27 03:31:46;;;;;;;7.55;1.88;;;7.50;99.90;;;;;;4142021;28;20034;-68
2021/03/27 03:34:20;;;;;;;6.72;1.80;;;7.60;99.90;;;;;;4140482;28;20041;-68
2021/03/27 03:36:42;;;;;;;6.45;2.00;;;7.50;99.90;;;;;;4141611;28;20030;-68
2021/03/27 03:38:47;;;;;;;3.83;2.05;;;7.50;99.90;;;;;;4142658;28;20034;-68
2021/03/27 03:41:11;;;;;;;12.35;2.60;;;7.50;99.90;;;;;;4142022;28;20117;-68
2021/03/27 03:43:34;;;;;;;9.60;2.47;;;7.50;99.90;;;;;;4134959;28;20044;-68
2021/03/27 03:45:56;;;;;;;6.88;1.92;;;7.50;99.90;;;;;;4120667;28;20107;-68
2021/03/27 03:48:13;;;;;;;7.63;2.45;;;7.40;99.90;;;;;;4142230;28;20030;-68
2021/03/27 03:50:30;;;;;;;7.40;2.17;;;7.50;99.90;;;;;;4134971;28;20057;-68
2021/03/27 03:52:38;;;;;;;8.10;2.78;;;7.40;99.90;;;;;;4122789;28;20041;-68
2021/03/27 03:55:04;;;;;;;6.95;2.22;;;7.40;99.90;;;;;;4142078;28;20061;-68
2021/03/27 03:57:29;;;;;;;10.75;2.25;;;7.50;99.90;;;;;;4123775;28;20078;-68
2021/03/27 03:59:43;;;;;;;4.85;1.55;;;7.40;99.90;;;;;;4141690;28;20033;-68
2021/03/27 04:01:57;;;;;;;8.70;2.30;;;7.50;99.90;;;;;;4140978;28;20037;-68
2021/03/27 04:04:05;;;;;;;6.55;2.20;;;7.40;99.90;;;;;;4141782;28;20042;-68
2021/03/27 04:06:15;;;;;;;9.95;2.38;;;7.40;99.90;;;;;;4135601;28;20386;-68
2021/03/27 04:08:44;;;;;;;9.65;2.50;;;7.50;99.90;;;;;;4108167;28;20167;-68
2021/03/27 04:10:47;;;;;;;7.03;2.28;;;7.50;99.90;;;;;;4114987;28;20034;-68
2021/03/27 04:12:56;;;;;;;11.75;2.75;;;7.40;99.90;;;;;;4119541;28;22051;-68
2021/03/27 04:15:10;;;;;;;5.78;2.42;;;7.40;99.90;;;;;;4111431;28;20039;-68
2021/03/27 04:17:26;;;;;;;8.07;2.47;;;7.50;99.90;;;;;;4135092;28;20057;-68
2021/03/27 04:19:29;;;;;;;5.32;2.20;;;7.50;99.90;;;;;;4141148;28;20037;-68
2021/03/27 04:21:31;;;;;;;;;;;7.40;99.90;;;;;;4145820;28;20053;-68
2021/03/27 04:23:48;;;;;;;8.77;2.55;;;7.50;99.90;;;;;;4152736;28;19971;-68
2021/03/27 04:26:09;;;;;;;6.38;2.33;;;7.50;99.90;;;;;;4141730;28;20593;-68
2021/03/27 04:28:35;;;;;;;6.80;2.22;;;7.50;99.90;;;;;;4138356;28;20037;-68
2021/03/27 04:31:04;;;;;;;9.15;2.40;;;7.50;99.90;;;;;;4139857;28;20536;-68
2021/03/27 04:33:13;;;;;;;7.53;2.22;;;7.50;99.90;;;;;;4120890;28;20042;-68
2021/03/27 04:35:42;;;;;;;9.07;2.13;;;7.50;99.90;;;;;;4141813;28;20044;-68
2021/03/27 04:38:07;;;;;;;13.18;2.55;;;7.50;99.90;;;;;;4139262;28;20053;-68
2021/03/27 04:40:30;;;;;;;7.43;2.17;;;7.50;99.90;;;;;;4117135;28;20038;-68
2021/03/27 04:42:52;;;;;;;9.40;2.40;;;7.50;99.90;;;;;;4137916;28;20046;-68
2021/03/27 04:45:21;;;;;;;7.77;2.57;;;7.50;99.90;;;;;;4141463;28;20609;-69
2021/03/27 04:47:30;;;;;;;10.32;2.65;;;7.50;99.90;;;;;;4123249;28;20333;-68
2021/03/27 04:49:37;;;;;;;6.80;2.20;;;7.40;99.90;;;;;;4138457;28;20026;-68
2021/03/27 04:51:41;;;;;;;4.03;1.60;;;7.50;99.90;;;;;;4118523;28;20046;-68
2021/03/27 04:53:47;;;;;;;7.57;2.25;;;7.50;99.90;;;;;;4142148;28;20414;-68
2021/03/27 04:55:56;;;;;;;5.88;2.38;;;7.50;99.90;;;;;;4140082;28;20378;-68
2021/03/27 04:58:05;;;;;;;5.82;2.20;;;7.50;99.90;;;;;;4123279;28;20126;-68
2021/03/27 05:00:37;;;;;;;8.50;2.30;;;7.60;99.90;;;;;;4134340;28;20097;-68
2021/03/27 05:02:53;;;;;;;10.60;2.33;;;7.50;99.90;;;;;;4139227;28;20038;-68
2021/03/27 05:05:21;;;;;;;15.77;3.10;;;7.40;99.90;;;;;;4140041;28;20458;-68
2021/03/27 05:07:30;;;;;;;8.27;2.50;;;7.40;99.90;;;;;;4120239;28;20042;-68
2021/03/27 05:09:40;;;;;;;8.15;2.10;;;7.40;99.90;;;;;;4140047;28;20034;-68
2021/03/27 05:11:44;;;;;;;14.38;2.40;;;7.40;99.90;;;;;;4136896;28;20070;-68
2021/03/27 05:14:04;;;;;;;6.55;2.50;;;7.50;99.90;;;;;;4123750;28;20490;-68
2021/03/27 05:16:13;;;;;;;8.88;2.63;;;7.50;99.90;;;;;;4140466;28;20048;-68
2021/03/27 05:18:44;;;;;;;8.48;2.45;;;7.50;99.90;;;;;;4136571;28;20030;-69
2021/03/27 05:20:51;;;;;;;11.27;2.38;;;7.50;99.90;;;;;;4138877;28;20466;-69
2021/03/27 05:23:14;;;;;;;8.65;2.33;;;7.40;99.90;;;;;;4115695;28;20034;-68
2021/03/27 05:25:14;;;;;;;;;;;7.40;99.90;;;;;;4133750;28;20058;-68
2021/03/27 05:27:30;;;;;;;14.30;2.75;;;7.40;99.90;;;;;;4122026;28;19909;-68
2021/03/27 05:29:54;;;;;;;9.75;2.55;;;7.40;99.90;;;;;;4122670;28;20038;-68
2021/03/27 05:38:00;;;;;;;14.68;2.35;;;7.50;99.90;;;;;;4148891;28;20655;-68
2021/03/27 05:40:24;;;;;;;7.78;2.35;;;7.50;99.90;;;;;;4153072;28;20033;-68
2021/03/27 05:42:39;;;;;;;;;;;7.50;99.90;;;;;;4140925;28;20064;-68
2021/03/27 05:44:49;;;;;;;7.93;2.15;;;7.50;99.90;;;;;;4143399;28;19925;-69
2021/03/27 05:47:17;;;;;;;9.18;3.08;;;7.50;99.90;;;;;;4152729;28;20053;-68
2021/03/27 05:50:02;;;;;;;10.68;2.72;;;7.50;99.90;;;;;;4138125;28;20038;-68
2021/03/27 05:52:24;;;;;;;7.82;2.25;;;7.60;99.90;;;;;;4152822;28;20117;-68
2021/03/27 05:54:40;;;;;;;9.05;2.22;;;7.50;99.90;;;;;;4126439;28;20058;-68
2021/03/27 05:57:12;;;;;;;10.38;2.83;;;7.50;99.90;;;;;;4153252;28;20119;-68
2021/03/27 05:59:33;;;;;;;9.02;2.70;;;7.50;99.90;;;;;;4134931;28;20041;-68
2021/03/27 06:01:47;;;;;;;13.02;3.10;;;7.50;99.90;;;;;;4150718;28;20048;-68
2021/03/27 06:04:05;;;;;;;8.38;2.70;;;7.50;99.90;;;;;;4127963;28;20041;-68
2021/03/27 06:06:33;;;;;;;6.90;2.10;;;7.60;99.90;;;;;;4136635;28;20034;-68
2021/03/27 06:09:12;;;;;;;10.07;2.47;;;7.60;99.90;;;;;;4140311;28;20038;-68
2021/03/27 06:11:52;;;;;;;9.27;2.47;;;7.50;99.90;;;;;;4142941;28;20663;-68
2021/03/27 06:13:58;;;;;;;10.07;2.65;;;7.50;99.90;;;;;;4121101;28;20033;-68
2021/03/27 06:16:22;;;;;;;15.10;3.25;;;7.60;99.90;;;;;;4135692;28;20098;-68
2021/03/27 06:18:22;;;;;;;9.10;2.28;;;7.60;99.90;;;;;;4089151;28;20173;-68
2021/03/27 06:20:32;;;;;;;7.82;2.33;;;7.60;99.90;;;;;;4123931;28;20062;-68
2021/03/27 06:22:59;;;;;;;15.27;2.63;;;7.60;99.90;;;;;;4133346;28;20063;-68
2021/03/27 06:25:19;;;;;;;16.70;3.30;;;7.70;99.90;;;;;;4137443;28;20026;-68
2021/03/27 06:27:33;;;;;;;9.95;3.40;;;7.70;99.90;;;;;;4120685;28;20034;-68
2021/03/27 06:29:55;;;;;;;8.70;2.25;;;7.70;99.90;;;;;;4124452;28;20042;-68
2021/03/27 06:32:26;;;;;;;14.63;2.83;;;7.70;99.90;;;;;;4124146;28;20053;-69
2021/03/27 06:34:53;;;;;;;9.90;2.63;;;7.70;99.90;;;;;;4118929;28;20113;-68
2021/03/27 06:37:12;;;;;;;11.15;2.55;;;7.70;99.90;;;;;;4123434;28;20046;-68
2021/03/27 06:39:18;;;;;;;14.95;3.10;;;7.70;99.90;;;;;;4131738;28;20026;-68
2021/03/27 06:41:43;;;;;;;8.00;2.47;;;7.70;99.90;;;;;;4127638;28;20073;-68
2021/03/27 06:44:10;;;;;;;13.75;3.35;;;7.70;99.90;;;;;;4115866;28;20035;-68
2021/03/27 06:46:13;;;;;;;16.38;3.42;;;7.60;99.90;;;;;;4124529;28;20034;-68
2021/03/27 06:48:32;;;;;;;14.02;3.35;;;7.60;99.90;;;;;;4121682;28;20023;-68
2021/03/27 06:51:00;;;;;;;12.65;3.20;;;7.50;99.90;;;;;;4123977;28;20042;-68
2021/03/27 06:53:42;;;;;;;11.43;3.03;;;7.50;99.90;;;;;;4138757;28;20141;-68
2021/03/27 06:56:10;;;;;;;9.98;2.83;;;7.50;99.90;;;;;;4118008;28;20538;-68
2021/03/27 06:58:29;;;;;;;10.85;2.75;;;7.50;99.90;;;;;;4135418;28;20038;-68
2021/03/27 07:00:36;;;;;;;11.00;2.35;;;7.40;99.90;;;;;;4125048;28;20379;-68
2021/03/27 07:02:42;;;;;;;14.65;1.88;;;7.20;99.90;;;;;;4142433;28;20045;-68
2021/03/27 07:05:31;;;;;;;2.85;1.13;;;6.90;99.90;;;;;;4126428;28;20125;-68
2021/03/27 07:07:54;;;;;;;6.45;1.70;;;6.40;99.90;;;;;;4137293;28;20050;-69
2021/03/27 07:10:30;;;;;;;4.03;1.35;;;6.10;99.90;;;;;;4125846;28;20052;-69
2021/03/27 07:12:53;;;;;;;3.90;1.15;;;5.90;99.90;;;;;;4125150;28;20038;-69
2021/03/27 07:15:18;;;;;;;5.75;1.38;;;5.80;99.90;;;;;;4127013;28;20104;-68
2021/03/27 07:17:38;;;;;;;3.25;0.85;;;5.70;99.90;;;;;;4102404;28;20529;-69
2021/03/27 07:19:55;;;;;;;8.07;1.30;;;5.80;99.90;;;;;;4125026;28;20162;-69
2021/03/27 07:22:07;;;;;;;2.70;1.15;;;5.70;99.90;;;;;;4119512;28;20038;-69
2021/03/27 07:24:35;;;;;;;4.93;1.10;;;5.70;99.90;;;;;;4122623;28;20026;-69
2021/03/27 07:26:57;;;;;;;3.08;0.93;;;5.70;99.90;;;;;;4124432;28;20379;-69
2021/03/27 07:29:30;;;;;;;6.75;1.00;;;5.80;99.90;;;;;;4123788;28;20049;-69
2021/03/27 07:31:31;;;;;;;2.08;1.05;;;5.80;99.90;;;;;;4110533;28;20133;-69
2021/03/27 07:33:37;;;;;;;7.97;1.40;;;5.80;99.90;;;;;;4115218;28;20073;-69
2021/03/27 07:36:14;;;;;;;1.65;0.75;;;5.90;99.90;;;;;;4120137;28;20034;-69
2021/03/27 07:38:34;;;;;;;8.25;1.58;;;5.90;99.90;;;;;;4127796;28;20046;-69
2021/03/27 07:40:43;;;;;;;5.35;1.45;;;6.00;99.90;;;;;;4129177;28;20105;-70
2021/03/27 07:43:00;;;;;;;5.70;1.50;;;6.00;99.90;;;;;;4133259;28;20042;-69
2021/03/27 07:45:05;;;;;;;2.97;1.20;;;6.10;99.90;;;;;;4121625;28;20620;-69
2021/03/27 07:47:17;;;;;;;4.68;1.38;;;6.10;99.90;;;;;;4121261;28;20027;-69
2021/03/27 07:49:46;;;;;;;4.60;1.65;;;6.20;99.90;;;;;;4117561;28;20038;-69
2021/03/27 07:52:04;;;;;;;16.73;4.10;;;6.20;99.90;;;;;;4119441;28;20053;-69
2021/03/27 07:54:34;;;;;;;13.15;3.55;;;6.30;99.90;;;;;;4122202;28;20042;-69
2021/03/27 07:59:01;;;;;;;7.50;2.47;;;6.20;99.90;;;;;;4168120;27;20730;-69
2021/03/27 08:01:22;;;;;;;14.05;4.50;;;6.20;99.90;;;;;;4185480;28;20051;-69
2021/03/27 08:03:39;;;;;;;7.43;3.10;;;6.30;99.90;;;;;;4187391;28;20039;-69
2021/03/27 08:06:01;;;;;;;6.43;1.75;;;6.40;99.90;;;;;;4172080;28;20047;-69
2021/03/27 08:08:26;;;;;;;7.03;1.97;;;6.50;99.90;;;;;;4174949;28;20053;-69
2021/03/27 08:10:44;;;;;;;8.27;2.65;;;6.60;99.90;;;;;;4178249;28;20045;-69
2021/03/27 08:13:16;;;;;;;10.77;4.18;;;6.80;99.90;;;;;;4174471;28;20038;-69
2021/03/27 08:15:37;;;;;;;10.65;3.33;;;6.90;99.90;;;;;;4185282;28;20021;-69
2021/03/27 08:17:56;;;;;;;5.63;2.10;;;6.90;99.90;;;;;;4166482;28;20072;-69
2021/03/27 08:20:11;;;;;;;10.98;5.07;;;7.00;99.90;;;;;;4174141;28;20045;-69
2021/03/27 08:22:20;;;;;;;5.88;2.58;;;7.10;99.90;;;;;;4183362;28;21659;-69
2021/03/27 08:24:39;;;;;;;8.70;2.47;;;7.10;99.90;;;;;;4184642;28;21079;-69
2021/03/27 08:26:58;;;;;;;4.82;2.05;;;7.20;99.90;;;;;;4163490;28;20033;-69
2021/03/27 08:29:28;;;;;;;4.05;2.00;;;7.30;99.90;;;;;;4169328;28;20087;-70
2021/03/27 08:32:04;;;;;;;7.68;2.65;;;7.50;99.90;;;;;;4166241;28;20041;-70
2021/03/27 08:34:14;;;;;;;6.03;2.20;;;7.60;99.90;;;;;;4169127;28;20033;-70
2021/03/27 08:36:33;;;;;;;8.48;3.58;;;7.80;99.90;;;;;;4173294;28;20046;-72
2021/03/27 08:38:55;;;;;;;8.45;2.42;;;7.90;99.90;;;;;;4183678;28;20037;-70
2021/03/27 08:41:14;;;;;;;11.15;4.30;;;8.10;99.90;;;;;;4168685;28;20041;-70
2021/03/27 08:43:41;;;;;;;8.20;2.80;;;8.20;99.90;;;;;;4176255;28;20034;-70
2021/03/27 08:46:05;;;;;;;8.48;2.50;;;8.30;99.90;;;;;;4194791;28;20119;-70
2021/03/27 08:48:21;;;;;;;10.13;3.35;;;8.50;99.90;;;;;;4159590;28;20459;-69
2021/03/27 08:50:59;;;;;;;10.70;3.22;;;8.50;99.90;;;;;;4183028;28;20369;-69
2021/03/27 08:53:20;;;;;;;16.23;4.43;;;8.60;99.90;;;;;;4187409;28;20115;-69
2021/03/27 08:55:28;;;;;;;14.82;4.65;;;8.70;99.90;;;;;;4202417;28;20194;-69
2021/03/27 08:57:56;;;;;;;12.10;4.25;;;8.80;99.90;;;;;;4203979;28;20120;-69
2021/03/27 09:00:15;;;;;;;14.20;3.35;;;8.90;99.90;;;;;;4198802;27;20050;-68
2021/03/27 09:02:38;;;;;;;18.80;4.65;;;9.00;99.90;;;;;;4194752;28;20036;-68
2021/03/27 09:05:16;;;;;;;10.70;3.87;;;9.10;99.90;;;;;;4202222;28;20455;-68
2021/03/27 09:07:38;;;;;;;9.00;2.85;;;9.10;99.90;;;;;;4196915;28;20032;-68
2021/03/27 09:09:51;;;;;;;11.88;3.70;;;9.10;99.90;;;;;;4186351;28;20040;-68
2021/03/27 09:12:03;;;;;;;11.70;3.83;;;9.00;99.90;;;;;;4188926;28;20473;-68
2021/03/27 09:14:28;;;;;;;11.90;3.17;;;9.10;99.90;;;;;;4191831;28;20036;-68
2021/03/27 09:16:54;;;;;;;11.43;2.97;;;9.10;99.90;;;;;;4187624;28;20047;-68
2021/03/27 09:19:00;;;;;;;10.43;3.47;;;9.00;99.90;;;;;;4184686;28;20044;-68
2021/03/27 09:21:27;;;;;;;11.15;3.10;;;9.00;99.90;;;;;;4193436;28;20477;-68
2021/03/27 09:23:31;;;;;;;11.38;3.28;;;9.00;99.90;;;;;;4189411;28;20052;-68
2021/03/27 09:26:10;;;;;;;12.73;2.75;;;9.00;99.90;;;;;;4184250;28;20028;-68
2021/03/27 09:28:16;;;;;;;12.68;3.15;;;8.90;99.90;;;;;;4113543;28;20047;-68
2021/03/27 09:30:34;;;;;;;11.48;2.70;;;8.90;99.90;;;;;;4099439;28;20447;-68
2021/03/27 09:32:53;;;;;;;5.88;2.50;;;8.80;99.90;;;;;;4113353;28;20061;-68
2021/03/27 09:35:25;;;;;;;9.70;2.67;;;8.90;99.90;;;;;;4189279;28;20039;-68
2021/03/27 09:37:59;;;;;;;7.88;2.40;;;8.90;99.90;;;;;;4186747;28;20075;-68
2021/03/27 09:40:24;;;;;;;9.25;2.58;;;8.90;99.90;;;;;;4191024;28;20029;-68
2021/03/27 09:42:39;;;;;;;7.72;1.88;;;9.00;99.90;;;;;;4188254;28;20040;-68
2021/03/27 09:45:03;;;;;;;3.58;0.90;;;8.90;99.90;;;;;;4186344;28;20401;-68
2021/03/27 09:47:38;;;;;;;1.75;0.82;;;8.60;99.90;;;;;;4189003;28;20357;-68
2021/03/27 09:49:59;;;;;;;3.92;1.08;;;8.50;99.90;;;;;;4186566;28;20064;-68
2021/03/27 09:52:17;;;;;;;4.30;1.20;;;8.40;99.90;;;;;;4192224;28;20451;-68
2021/03/27 09:54:32;;;;;;;3.78;1.08;;;8.30;99.90;;;;;;4183679;28;20032;-68
2021/03/27 09:56:56;;;;;;;6.15;1.45;;;8.10;99.90;;;;;;4185101;28;20033;-68
2021/03/27 09:59:11;;;;;;;3.70;1.23;;;8.00;99.90;;;;;;4185013;28;20068;-68
2021/03/27 10:01:18;;;;;;;4.53;1.40;;;7.90;99.90;;;;;;4191565;28;20068;-68
2021/03/27 10:03:40;;;;;;;4.22;1.50;;;7.80;99.90;;;;;;4184860;28;20070;-68
2021/03/27 10:05:59;;;;;;;8.70;1.83;;;7.70;99.90;;;;;;4183950;28;20029;-67
2021/03/27 10:08:19;;;;;;;4.63;1.67;;;7.30;99.90;;;;;;4190655;28;20082;-67
2021/03/27 10:10:37;;;;;;;7.80;1.90;;;7.00;99.90;;;;;;4187123;28;20021;-67
2021/03/27 10:12:58;;;;;;;8.20;2.13;;;6.90;99.90;;;;;;4191581;28;20485;-67
2021/03/27 10:15:18;;;;;;;12.25;2.83;;;6.80;99.90;;;;;;4189447;28;20047;-67
2021/03/27 10:17:35;;;;;;;9.15;2.25;;;6.70;99.90;;;;;;4177915;28;20041;-67
2021/03/27 10:19:51;;;;;;;9.23;2.17;;;6.70;99.90;;;;;;4187296;28;20115;-67
2021/03/27 10:21:58;;;;;;;5.60;1.25;;;6.60;99.90;;;;;;4186603;28;20059;-67
2021/03/27 10:24:05;;;;;;;6.45;1.58;;;6.50;99.90;;;;;;4189886;28;20052;-67
2021/03/27 10:26:15;;;;;;;6.38;1.75;;;6.50;99.90;;;;;;4188727;28;20033;-67
2021/03/27 10:28:32;;;;;;;3.47;1.25;;;6.50;99.90;;;;;;4183388;28;20037;-67
2021/03/27 10:30:49;;;;;;;6.70;1.58;;;6.60;99.90;;;;;;4189968;28;20123;-67
2021/03/27 10:33:04;;;;;;;5.28;1.83;;;6.80;99.90;;;;;;4188228;28;20094;-67
2021/03/27 10:35:42;;;;;;;7.03;2.10;;;6.90;99.90;;;;;;4189092;28;20494;-67
2021/03/27 10:38:05;;;;;;;6.05;1.90;;;7.00;99.90;;;;;;4168634;28;20710;-67
2021/03/27 10:40:34;;;;;;;8.32;2.03;;;7.20;99.90;;;;;;4179313;28;20120;-67
2021/03/27 10:42:59;;;;;;;9.02;2.15;;;7.30;99.90;;;;;;4171874;28;20053;-67
2021/03/27 10:45:26;;;;;;;9.18;1.80;;;7.40;99.90;;;;;;4189435;28;20056;-67
2021/03/27 10:47:38;;;;;;;10.10;2.33;;;7.60;99.90;;;;;;4183559;28;20036;-68
2021/03/27 10:50:01;;;;;;;10.20;2.97;;;7.90;99.90;;;;;;4183270;28;20555;-67
2021/03/27 10:52:13;;;;;;;11.18;3.08;;;8.00;99.90;;;;;;4190607;28;20043;-70
2021/03/27 10:54:25;;;;;;;12.90;3.92;;;8.30;99.90;;;;;;4185562;28;20043;-68
2021/03/27 10:57:09;;;;;;;13.00;3.67;;;8.50;99.90;;;;;;4190474;28;20133;-68
2021/03/27 10:59:26;;;;;;;12.10;3.38;;;8.60;99.90;;;;;;4182142;28;20066;-67
2021/03/27 11:01:46;;;;;;;13.35;3.80;;;8.70;99.90;;;;;;4186042;28;20139;-67
2021/03/27 11:04:06;;;;;;;11.95;2.90;;;8.70;99.90;;;;;;4170758;28;20045;-67
2021/03/27 11:06:13;;;;;;;9.30;2.60;;;8.60;99.90;;;;;;4180821;28;20040;-68
2021/03/27 11:08:25;;;;;;;6.80;2.38;;;8.50;99.90;;;;;;4187801;28;20024;-67
2021/03/27 11:10:38;;;;;;;7.07;1.83;;;8.50;99.90;;;;;;4182365;28;20029;-68
2021/03/27 11:13:11;;;;;;;9.23;2.40;;;8.50;99.90;;;;;;4186432;28;20036;-68
2021/03/27 11:15:38;;;;;;;10.70;2.47;;;8.60;99.90;;;;;;4182514;28;20120;-67
2021/03/27 11:17:57;;;;;;;9.63;2.30;;;8.70;99.90;;;;;;4176214;28;20446;-68
2021/03/27 11:20:18;;;;;;;6.45;2.10;;;8.70;99.90;;;;;;4183757;28;20094;-67
2021/03/27 11:22:28;;;;;;;9.80;2.42;;;8.70;99.90;;;;;;4184720;28;20063;-67
2021/03/27 11:24:37;;;;;;;8.00;2.60;;;8.70;99.90;;;;;;4189472;28;20036;-67
2021/03/27 11:27:16;;;;;;;8.95;2.42;;;8.70;99.90;;;;;;4188804;28;20498;-68
2021/03/27 11:29:41;;;;;;;8.35;2.17;;;8.70;99.90;;;;;;4193819;28;20487;-67
2021/03/27 11:31:49;;;;;;;6.07;2.22;;;8.60;99.90;;;;;;4183482;28;20573;-68
2021/03/27 11:34:02;;;;;;;3.50;1.50;;;8.70;99.90;;;;;;4180535;28;20082;-68
2021/03/27 11:36:11;;;;;;;5.35;1.80;;;8.90;99.90;;;;;;4185218;28;20119;-68
2021/03/27 11:38:34;;;;;;;4.85;2.17;;;9.00;99.90;;;;;;4179688;28;20040;-68
2021/03/27 11:40:41;;;;;;;7.18;2.17;;;9.10;99.90;;;;;;4189330;28;20062;-68
2021/03/27 11:42:50;;;;;;;4.93;1.92;;;9.30;99.90;;;;;;4187996;28;20469;-68
2021/03/27 11:45:07;;;;;;;6.50;1.95;;;9.40;99.90;;;;;;4183160;28;20032;-68
2021/03/27 11:47:39;;;;;;;5.90;1.75;;;9.50;99.90;;;;;;4187851;28;20495;-68
2021/03/27 11:49:51;;;;;;;11.85;3.25;;;9.70;99.90;;;;;;4173090;28;20067;-68
2021/03/27 11:52:27;;;;;;;10.30;2.60;;;9.80;99.90;;;;;;4176223;28;20048;-68
2021/03/27 11:54:53;;;;;;;11.80;2.80;;;10.00;99.90;;;;;;4186984;28;20052;-68
2021/03/27 11:57:21;;;;;;;5.40;1.90;;;10.10;99.90;;;;;;4174241;28;20096;-68
2021/03/27 12:02:24;;;;;;;7.47;2.33;;;10.20;99.90;;;;;;4176560;28;20084;-68
2021/03/27 12:05:01;;;;;;;23.60;2.65;;;10.20;99.90;;;;;;4172047;28;20029;-68
2021/03/27 12:07:11;;;;;;;8.45;2.80;;;10.20;99.90;;;;;;4173477;28;20025;-68
2021/03/27 12:09:34;;;;;;;8.05;2.35;;;10.20;99.90;;;;;;4172339;28;20119;-68
2021/03/27 12:11:53;;;;;;;8.60;2.55;;;10.20;99.90;;;;;;4173077;28;20366;-68
2021/03/27 12:14:08;;;;;;;9.52;2.80;;;10.10;99.90;;;;;;4169260;28;20025;-68
2021/03/27 12:16:14;;;;;;;7.68;2.40;;;10.10;99.90;;;;;;4174658;28;20092;-68